sensor_id;sensor_type;location;lat;lon;timestamp;P1;durP1;ratioP1;P2;durP2;ratioP2
52956;SDS011;38819;42.692;23.342;2024-02-23T00:00:35;21.13;;;12.00;;
52956;SDS011;38819;42.692;23.342;2024-02-23T00:03:00;14.80;;;9.85;;
52956;SDS011;38819;42.692;23.342;2024-02-23T00:05:25;12.20;;;8.40;;
52956;SDS011;38819;42.692;23.342;2024-02-23T00:07:51;14.23;;;9.32;;
52956;SDS011;38819;42.692;23.342;2024-02-23T00:10:16;20.70;;;9.98;;
52956;SDS011;38819;42.692;23.342;2024-02-23T00:12:42;14.27;;;10.10;;
52956;SDS011;38819;42.692;23.342;2024-02-23T00:15:08;14.05;;;8.93;;
52956;SDS011;38819;42.692;23.342;2024-02-23T00:17:35;13.43;;;8.65;;
52956;SDS011;38819;42.692;23.342;2024-02-23T00:20:00;16.45;;;10.50;;
52956;SDS011;38819;42.692;23.342;2024-02-23T00:22:25;16.80;;;9.95;;
52956;SDS011;38819;42.692;23.342;2024-02-23T00:24:51;19.87;;;9.07;;
52956;SDS011;38819;42.692;23.342;2024-02-23T00:27:16;15.68;;;9.65;;
52956;SDS011;38819;42.692;23.342;2024-02-23T00:29:42;16.27;;;9.93;;
52956;SDS011;38819;42.692;23.342;2024-02-23T00:32:07;15.38;;;11.07;;
52956;SDS011;38819;42.692;23.342;2024-02-23T00:34:32;19.73;;;10.57;;
52956;SDS011;38819;42.692;23.342;2024-02-23T00:36:58;14.90;;;9.98;;
52956;SDS011;38819;42.692;23.342;2024-02-23T00:39:23;18.90;;;9.55;;
52956;SDS011;38819;42.692;23.342;2024-02-23T00:41:49;18.73;;;10.10;;
52956;SDS011;38819;42.692;23.342;2024-02-23T00:44:14;16.98;;;10.30;;
52956;SDS011;38819;42.692;23.342;2024-02-23T00:46:39;15.30;;;10.10;;
52956;SDS011;38819;42.692;23.342;2024-02-23T00:49:05;17.08;;;10.10;;
52956;SDS011;38819;42.692;23.342;2024-02-23T00:51:31;16.27;;;10.15;;
52956;SDS011;38819;42.692;23.342;2024-02-23T00:53:57;14.48;;;9.07;;
52956;SDS011;38819;42.692;23.342;2024-02-23T00:56:22;15.40;;;9.07;;
52956;SDS011;38819;42.692;23.342;2024-02-23T00:58:48;11.60;;;9.27;;
52956;SDS011;38819;42.692;23.342;2024-02-23T01:01:13;16.13;;;8.85;;
52956;SDS011;38819;42.692;23.342;2024-02-23T01:03:38;14.10;;;8.88;;
52956;SDS011;38819;42.692;23.342;2024-02-23T01:06:04;14.20;;;9.00;;
52956;SDS011;38819;42.692;23.342;2024-02-23T01:08:29;16.52;;;9.15;;
52956;SDS011;38819;42.692;23.342;2024-02-23T01:10:55;17.25;;;9.27;;
52956;SDS011;38819;42.692;23.342;2024-02-23T01:13:20;13.50;;;9.40;;
52956;SDS011;38819;42.692;23.342;2024-02-23T01:15:45;14.15;;;9.90;;
52956;SDS011;38819;42.692;23.342;2024-02-23T01:18:11;18.27;;;9.60;;
52956;SDS011;38819;42.692;23.342;2024-02-23T01:20:36;13.90;;;9.05;;
52956;SDS011;38819;42.692;23.342;2024-02-23T01:23:02;11.65;;;9.13;;
52956;SDS011;38819;42.692;23.342;2024-02-23T01:25:27;12.63;;;9.05;;
52956;SDS011;38819;42.692;23.342;2024-02-23T01:27:52;14.52;;;8.63;;
52956;SDS011;38819;42.692;23.342;2024-02-23T01:30:18;12.10;;;8.45;;
52956;SDS011;38819;42.692;23.342;2024-02-23T01:32:44;14.93;;;8.85;;
52956;SDS011;38819;42.692;23.342;2024-02-23T01:35:12;16.48;;;8.57;;
52956;SDS011;38819;42.692;23.342;2024-02-23T01:37:37;14.85;;;9.20;;
52956;SDS011;38819;42.692;23.342;2024-02-23T01:40:03;14.80;;;8.65;;
52956;SDS011;38819;42.692;23.342;2024-02-23T01:42:29;11.30;;;7.78;;
52956;SDS011;38819;42.692;23.342;2024-02-23T01:44:54;11.40;;;7.68;;
52956;SDS011;38819;42.692;23.342;2024-02-23T01:47:23;14.02;;;9.10;;
52956;SDS011;38819;42.692;23.342;2024-02-23T01:49:49;15.07;;;8.43;;
52956;SDS011;38819;42.692;23.342;2024-02-23T01:52:16;12.13;;;8.00;;
52956;SDS011;38819;42.692;23.342;2024-02-23T01:54:42;15.60;;;9.10;;
52956;SDS011;38819;42.692;23.342;2024-02-23T01:57:08;16.73;;;7.60;;
52956;SDS011;38819;42.692;23.342;2024-02-23T01:59:34;10.55;;;8.02;;
52956;SDS011;38819;42.692;23.342;2024-02-23T02:02:02;14.55;;;9.00;;
52956;SDS011;38819;42.692;23.342;2024-02-23T02:04:28;17.65;;;8.27;;
52956;SDS011;38819;42.692;23.342;2024-02-23T02:06:53;12.73;;;7.75;;
52956;SDS011;38819;42.692;23.342;2024-02-23T02:09:20;13.65;;;7.70;;
52956;SDS011;38819;42.692;23.342;2024-02-23T02:11:46;12.40;;;8.07;;
52956;SDS011;38819;42.692;23.342;2024-02-23T02:14:12;10.85;;;7.80;;
52956;SDS011;38819;42.692;23.342;2024-02-23T02:16:38;11.20;;;7.30;;
52956;SDS011;38819;42.692;23.342;2024-02-23T02:19:04;14.90;;;7.43;;
52956;SDS011;38819;42.692;23.342;2024-02-23T02:21:30;13.25;;;9.27;;
52956;SDS011;38819;42.692;23.342;2024-02-23T02:23:56;13.02;;;9.13;;
52956;SDS011;38819;42.692;23.342;2024-02-23T02:26:22;11.80;;;8.23;;
52956;SDS011;38819;42.692;23.342;2024-02-23T02:28:47;11.43;;;8.07;;
52956;SDS011;38819;42.692;23.342;2024-02-23T02:31:12;10.88;;;7.45;;
52956;SDS011;38819;42.692;23.342;2024-02-23T02:33:39;13.50;;;8.77;;
52956;SDS011;38819;42.692;23.342;2024-02-23T02:36:05;15.23;;;9.63;;
52956;SDS011;38819;42.692;23.342;2024-02-23T02:38:30;13.88;;;8.77;;
52956;SDS011;38819;42.692;23.342;2024-02-23T02:40:58;17.05;;;9.50;;
52956;SDS011;38819;42.692;23.342;2024-02-23T02:43:25;12.80;;;8.65;;
52956;SDS011;38819;42.692;23.342;2024-02-23T02:45:51;15.60;;;8.75;;
52956;SDS011;38819;42.692;23.342;2024-02-23T02:48:16;12.68;;;8.93;;
52956;SDS011;38819;42.692;23.342;2024-02-23T02:50:42;12.32;;;8.75;;
52956;SDS011;38819;42.692;23.342;2024-02-23T02:53:07;9.75;;;7.53;;
52956;SDS011;38819;42.692;23.342;2024-02-23T02:55:33;16.65;;;8.35;;
52956;SDS011;38819;42.692;23.342;2024-02-23T02:57:58;10.52;;;8.27;;
52956;SDS011;38819;42.692;23.342;2024-02-23T03:00:24;14.98;;;8.27;;
52956;SDS011;38819;42.692;23.342;2024-02-23T03:02:49;11.82;;;7.82;;
52956;SDS011;38819;42.692;23.342;2024-02-23T03:05:15;12.07;;;8.07;;
52956;SDS011;38819;42.692;23.342;2024-02-23T03:07:40;11.45;;;7.88;;
52956;SDS011;38819;42.692;23.342;2024-02-23T03:10:06;17.63;;;9.25;;
52956;SDS011;38819;42.692;23.342;2024-02-23T03:12:32;13.43;;;8.60;;
52956;SDS011;38819;42.692;23.342;2024-02-23T03:14:57;14.15;;;8.40;;
52956;SDS011;38819;42.692;23.342;2024-02-23T03:17:23;15.10;;;8.00;;
52956;SDS011;38819;42.692;23.342;2024-02-23T03:19:49;13.88;;;8.70;;
52956;SDS011;38819;42.692;23.342;2024-02-23T03:22:15;13.13;;;9.18;;
52956;SDS011;38819;42.692;23.342;2024-02-23T03:24:40;15.82;;;9.50;;
52956;SDS011;38819;42.692;23.342;2024-02-23T03:27:06;13.77;;;10.15;;
52956;SDS011;38819;42.692;23.342;2024-02-23T03:29:31;22.13;;;9.10;;
52956;SDS011;38819;42.692;23.342;2024-02-23T03:31:57;15.65;;;8.32;;
52956;SDS011;38819;42.692;23.342;2024-02-23T03:34:22;16.38;;;8.60;;
52956;SDS011;38819;42.692;23.342;2024-02-23T03:36:48;17.50;;;9.48;;
52956;SDS011;38819;42.692;23.342;2024-02-23T03:39:13;16.58;;;9.60;;
52956;SDS011;38819;42.692;23.342;2024-02-23T03:41:39;14.10;;;8.90;;
52956;SDS011;38819;42.692;23.342;2024-02-23T03:44:04;13.88;;;8.63;;
52956;SDS011;38819;42.692;23.342;2024-02-23T03:46:30;13.48;;;8.35;;
52956;SDS011;38819;42.692;23.342;2024-02-23T03:48:55;14.07;;;8.15;;
52956;SDS011;38819;42.692;23.342;2024-02-23T03:51:21;15.57;;;9.45;;
52956;SDS011;38819;42.692;23.342;2024-02-23T03:53:47;13.35;;;8.88;;
52956;SDS011;38819;42.692;23.342;2024-02-23T03:56:12;17.75;;;9.93;;
52956;SDS011;38819;42.692;23.342;2024-02-23T03:58:38;12.85;;;8.95;;
52956;SDS011;38819;42.692;23.342;2024-02-23T04:01:03;19.52;;;9.35;;
52956;SDS011;38819;42.692;23.342;2024-02-23T04:03:28;13.20;;;8.98;;
52956;SDS011;38819;42.692;23.342;2024-02-23T04:05:54;14.25;;;9.70;;
52956;SDS011;38819;42.692;23.342;2024-02-23T04:08:19;15.18;;;8.63;;
52956;SDS011;38819;42.692;23.342;2024-02-23T04:10:45;12.85;;;9.20;;
52956;SDS011;38819;42.692;23.342;2024-02-23T04:13:10;15.60;;;9.52;;
52956;SDS011;38819;42.692;23.342;2024-02-23T04:15:38;17.48;;;9.40;;
52956;SDS011;38819;42.692;23.342;2024-02-23T04:18:04;14.10;;;9.70;;
52956;SDS011;38819;42.692;23.342;2024-02-23T04:20:30;16.17;;;9.27;;
52956;SDS011;38819;42.692;23.342;2024-02-23T04:22:55;18.15;;;9.18;;
52956;SDS011;38819;42.692;23.342;2024-02-23T04:25:21;20.35;;;10.07;;
52956;SDS011;38819;42.692;23.342;2024-02-23T04:27:46;14.05;;;9.35;;
52956;SDS011;38819;42.692;23.342;2024-02-23T04:30:12;15.07;;;9.77;;
52956;SDS011;38819;42.692;23.342;2024-02-23T04:32:38;14.80;;;9.57;;
52956;SDS011;38819;42.692;23.342;2024-02-23T04:35:04;16.40;;;9.20;;
52956;SDS011;38819;42.692;23.342;2024-02-23T04:37:29;20.55;;;10.55;;
52956;SDS011;38819;42.692;23.342;2024-02-23T04:39:55;16.80;;;9.35;;
52956;SDS011;38819;42.692;23.342;2024-02-23T04:42:20;16.90;;;10.23;;
52956;SDS011;38819;42.692;23.342;2024-02-23T04:44:45;13.65;;;9.18;;
52956;SDS011;38819;42.692;23.342;2024-02-23T04:47:11;13.68;;;9.48;;
52956;SDS011;38819;42.692;23.342;2024-02-23T04:49:36;17.25;;;10.35;;
52956;SDS011;38819;42.692;23.342;2024-02-23T04:52:02;18.13;;;10.73;;
52956;SDS011;38819;42.692;23.342;2024-02-23T04:54:27;17.20;;;10.68;;
52956;SDS011;38819;42.692;23.342;2024-02-23T04:56:53;18.25;;;10.25;;
52956;SDS011;38819;42.692;23.342;2024-02-23T04:59:18;13.90;;;9.93;;
52956;SDS011;38819;42.692;23.342;2024-02-23T05:01:43;13.38;;;10.43;;
52956;SDS011;38819;42.692;23.342;2024-02-23T05:04:09;21.05;;;10.65;;
52956;SDS011;38819;42.692;23.342;2024-02-23T05:06:34;17.50;;;11.07;;
52956;SDS011;38819;42.692;23.342;2024-02-23T05:09:00;18.38;;;10.48;;
52956;SDS011;38819;42.692;23.342;2024-02-23T05:11:26;20.15;;;11.38;;
52956;SDS011;38819;42.692;23.342;2024-02-23T05:13:51;15.82;;;11.15;;
52956;SDS011;38819;42.692;23.342;2024-02-23T05:16:17;19.08;;;10.75;;
52956;SDS011;38819;42.692;23.342;2024-02-23T05:18:43;19.50;;;10.35;;
52956;SDS011;38819;42.692;23.342;2024-02-23T05:21:08;17.67;;;11.23;;
52956;SDS011;38819;42.692;23.342;2024-02-23T05:23:34;28.50;;;11.18;;
52956;SDS011;38819;42.692;23.342;2024-02-23T05:26:00;19.75;;;10.63;;
52956;SDS011;38819;42.692;23.342;2024-02-23T05:28:26;18.88;;;11.38;;
52956;SDS011;38819;42.692;23.342;2024-02-23T05:30:52;19.20;;;10.50;;
52956;SDS011;38819;42.692;23.342;2024-02-23T05:33:19;19.60;;;11.25;;
52956;SDS011;38819;42.692;23.342;2024-02-23T05:35:45;24.60;;;12.13;;
52956;SDS011;38819;42.692;23.342;2024-02-23T05:38:13;23.67;;;12.05;;
52956;SDS011;38819;42.692;23.342;2024-02-23T05:40:39;24.88;;;12.55;;
52956;SDS011;38819;42.692;23.342;2024-02-23T05:43:04;21.80;;;12.25;;
52956;SDS011;38819;42.692;23.342;2024-02-23T05:45:30;16.23;;;11.27;;
52956;SDS011;38819;42.692;23.342;2024-02-23T05:47:55;22.50;;;11.48;;
52956;SDS011;38819;42.692;23.342;2024-02-23T05:50:21;18.83;;;11.05;;
52956;SDS011;38819;42.692;23.342;2024-02-23T05:52:46;23.90;;;12.48;;
52956;SDS011;38819;42.692;23.342;2024-02-23T05:55:11;24.52;;;11.75;;
52956;SDS011;38819;42.692;23.342;2024-02-23T05:57:37;24.10;;;11.13;;
52956;SDS011;38819;42.692;23.342;2024-02-23T06:00:03;31.38;;;12.50;;
52956;SDS011;38819;42.692;23.342;2024-02-23T06:02:29;16.60;;;9.23;;
52956;SDS011;38819;42.692;23.342;2024-02-23T06:04:54;29.77;;;12.30;;
52956;SDS011;38819;42.692;23.342;2024-02-23T06:07:20;23.08;;;12.00;;
52956;SDS011;38819;42.692;23.342;2024-02-23T06:09:51;18.58;;;11.50;;
52956;SDS011;38819;42.692;23.342;2024-02-23T06:12:17;22.83;;;12.68;;
52956;SDS011;38819;42.692;23.342;2024-02-23T06:14:42;21.63;;;12.55;;
52956;SDS011;38819;42.692;23.342;2024-02-23T06:17:08;25.23;;;13.13;;
52956;SDS011;38819;42.692;23.342;2024-02-23T06:19:33;24.90;;;12.73;;
52956;SDS011;38819;42.692;23.342;2024-02-23T06:21:58;19.77;;;11.52;;
52956;SDS011;38819;42.692;23.342;2024-02-23T06:24:24;23.00;;;12.32;;
52956;SDS011;38819;42.692;23.342;2024-02-23T06:26:49;22.50;;;12.73;;
52956;SDS011;38819;42.692;23.342;2024-02-23T06:29:16;27.47;;;13.90;;
52956;SDS011;38819;42.692;23.342;2024-02-23T06:31:41;25.10;;;11.80;;
52956;SDS011;38819;42.692;23.342;2024-02-23T06:34:08;26.58;;;14.15;;
52956;SDS011;38819;42.692;23.342;2024-02-23T06:36:34;23.05;;;12.27;;
52956;SDS011;38819;42.692;23.342;2024-02-23T06:38:59;23.23;;;12.30;;
52956;SDS011;38819;42.692;23.342;2024-02-23T06:41:25;25.60;;;12.82;;
52956;SDS011;38819;42.692;23.342;2024-02-23T06:43:51;26.55;;;13.15;;
52956;SDS011;38819;42.692;23.342;2024-02-23T06:46:18;27.88;;;12.52;;
52956;SDS011;38819;42.692;23.342;2024-02-23T06:48:45;26.10;;;13.02;;
52956;SDS011;38819;42.692;23.342;2024-02-23T06:51:10;23.30;;;11.70;;
52956;SDS011;38819;42.692;23.342;2024-02-23T06:53:36;31.45;;;13.48;;
52956;SDS011;38819;42.692;23.342;2024-02-23T06:56:01;18.15;;;12.50;;
52956;SDS011;38819;42.692;23.342;2024-02-23T06:58:27;18.42;;;11.93;;
52956;SDS011;38819;42.692;23.342;2024-02-23T07:00:53;20.52;;;11.57;;
52956;SDS011;38819;42.692;23.342;2024-02-23T07:03:18;18.90;;;13.00;;
52956;SDS011;38819;42.692;23.342;2024-02-23T07:05:44;20.58;;;11.55;;
52956;SDS011;38819;42.692;23.342;2024-02-23T07:08:11;16.75;;;10.93;;
52956;SDS011;38819;42.692;23.342;2024-02-23T07:10:37;18.33;;;12.20;;
52956;SDS011;38819;42.692;23.342;2024-02-23T07:13:02;24.92;;;14.38;;
52956;SDS011;38819;42.692;23.342;2024-02-23T07:15:27;26.95;;;12.38;;
52956;SDS011;38819;42.692;23.342;2024-02-23T07:17:53;27.65;;;12.02;;
52956;SDS011;38819;42.692;23.342;2024-02-23T07:20:18;19.35;;;12.73;;
52956;SDS011;38819;42.692;23.342;2024-02-23T07:22:44;24.25;;;13.70;;
52956;SDS011;38819;42.692;23.342;2024-02-23T07:25:10;22.15;;;13.98;;
52956;SDS011;38819;42.692;23.342;2024-02-23T07:27:36;24.60;;;13.82;;
52956;SDS011;38819;42.692;23.342;2024-02-23T07:30:01;24.42;;;14.10;;
52956;SDS011;38819;42.692;23.342;2024-02-23T07:32:28;21.17;;;13.20;;
52956;SDS011;38819;42.692;23.342;2024-02-23T07:34:54;29.43;;;14.23;;
52956;SDS011;38819;42.692;23.342;2024-02-23T07:37:20;20.02;;;13.13;;
52956;SDS011;38819;42.692;23.342;2024-02-23T07:39:45;23.20;;;14.27;;
52956;SDS011;38819;42.692;23.342;2024-02-23T07:42:12;23.98;;;12.68;;
52956;SDS011;38819;42.692;23.342;2024-02-23T07:44:39;25.50;;;14.77;;
52956;SDS011;38819;42.692;23.342;2024-02-23T07:47:05;21.55;;;13.57;;
52956;SDS011;38819;42.692;23.342;2024-02-23T07:49:30;22.15;;;13.85;;
52956;SDS011;38819;42.692;23.342;2024-02-23T07:51:56;18.95;;;13.73;;
52956;SDS011;38819;42.692;23.342;2024-02-23T07:54:21;20.17;;;12.48;;
52956;SDS011;38819;42.692;23.342;2024-02-23T07:56:47;22.25;;;13.90;;
52956;SDS011;38819;42.692;23.342;2024-02-23T07:59:12;21.13;;;12.43;;
52956;SDS011;38819;42.692;23.342;2024-02-23T08:01:38;22.38;;;14.50;;
52956;SDS011;38819;42.692;23.342;2024-02-23T08:04:05;21.63;;;14.02;;
52956;SDS011;38819;42.692;23.342;2024-02-23T08:06:30;21.58;;;14.45;;
52956;SDS011;38819;42.692;23.342;2024-02-23T08:08:55;25.35;;;13.80;;
52956;SDS011;38819;42.692;23.342;2024-02-23T08:11:21;21.40;;;12.52;;
52956;SDS011;38819;42.692;23.342;2024-02-23T08:13:46;34.30;;;14.32;;
52956;SDS011;38819;42.692;23.342;2024-02-23T08:16:12;19.77;;;13.43;;
52956;SDS011;38819;42.692;23.342;2024-02-23T08:18:37;21.25;;;13.43;;
52956;SDS011;38819;42.692;23.342;2024-02-23T08:21:03;23.20;;;14.23;;
52956;SDS011;38819;42.692;23.342;2024-02-23T08:23:30;21.40;;;13.43;;
52956;SDS011;38819;42.692;23.342;2024-02-23T08:25:56;19.02;;;12.93;;
52956;SDS011;38819;42.692;23.342;2024-02-23T08:28:23;23.88;;;13.88;;
52956;SDS011;38819;42.692;23.342;2024-02-23T08:30:49;32.53;;;14.05;;
52956;SDS011;38819;42.692;23.342;2024-02-23T08:33:14;24.02;;;13.93;;
52956;SDS011;38819;42.692;23.342;2024-02-23T08:35:39;19.60;;;12.57;;
52956;SDS011;38819;42.692;23.342;2024-02-23T08:38:05;23.15;;;12.55;;
52956;SDS011;38819;42.692;23.342;2024-02-23T08:40:30;18.75;;;12.80;;
52956;SDS011;38819;42.692;23.342;2024-02-23T08:42:56;25.15;;;12.43;;
52956;SDS011;38819;42.692;23.342;2024-02-23T08:45:21;20.77;;;12.23;;
52956;SDS011;38819;42.692;23.342;2024-02-23T08:47:47;22.20;;;12.43;;
52956;SDS011;38819;42.692;23.342;2024-02-23T08:50:12;17.77;;;11.73;;
52956;SDS011;38819;42.692;23.342;2024-02-23T08:52:38;18.55;;;11.52;;
52956;SDS011;38819;42.692;23.342;2024-02-23T08:55:03;27.92;;;13.25;;
52956;SDS011;38819;42.692;23.342;2024-02-23T08:57:29;20.77;;;12.05;;
52956;SDS011;38819;42.692;23.342;2024-02-23T08:59:54;19.00;;;12.15;;
52956;SDS011;38819;42.692;23.342;2024-02-23T09:02:22;17.95;;;12.18;;
52956;SDS011;38819;42.692;23.342;2024-02-23T09:04:48;21.02;;;12.02;;
52956;SDS011;38819;42.692;23.342;2024-02-23T09:07:13;18.60;;;11.95;;
52956;SDS011;38819;42.692;23.342;2024-02-23T09:09:39;18.48;;;11.50;;
52956;SDS011;38819;42.692;23.342;2024-02-23T09:12:05;16.55;;;10.45;;
52956;SDS011;38819;42.692;23.342;2024-02-23T09:14:32;15.98;;;9.32;;
52956;SDS011;38819;42.692;23.342;2024-02-23T09:16:58;13.85;;;9.23;;
52956;SDS011;38819;42.692;23.342;2024-02-23T09:19:23;19.45;;;9.13;;
52956;SDS011;38819;42.692;23.342;2024-02-23T09:21:49;16.95;;;7.82;;
52956;SDS011;38819;42.692;23.342;2024-02-23T09:24:14;13.60;;;9.25;;
52956;SDS011;38819;42.692;23.342;2024-02-23T09:26:40;10.25;;;7.30;;
52956;SDS011;38819;42.692;23.342;2024-02-23T09:29:05;9.75;;;7.35;;
52956;SDS011;38819;42.692;23.342;2024-02-23T09:31:32;15.32;;;7.50;;
52956;SDS011;38819;42.692;23.342;2024-02-23T09:33:57;11.73;;;7.70;;
52956;SDS011;38819;42.692;23.342;2024-02-23T09:36:23;13.02;;;7.07;;
52956;SDS011;38819;42.692;23.342;2024-02-23T09:38:49;9.90;;;6.80;;
52956;SDS011;38819;42.692;23.342;2024-02-23T09:41:22;9.73;;;7.05;;
52956;SDS011;38819;42.692;23.342;2024-02-23T09:43:48;8.20;;;5.95;;
52956;SDS011;38819;42.692;23.342;2024-02-23T09:46:15;9.15;;;6.05;;
52956;SDS011;38819;42.692;23.342;2024-02-23T09:48:42;7.83;;;5.30;;
52956;SDS011;38819;42.692;23.342;2024-02-23T09:51:08;8.45;;;5.53;;
52956;SDS011;38819;42.692;23.342;2024-02-23T09:53:38;6.10;;;4.55;;
52956;SDS011;38819;42.692;23.342;2024-02-23T09:56:04;7.88;;;4.90;;
52956;SDS011;38819;42.692;23.342;2024-02-23T09:58:31;6.07;;;4.63;;
52956;SDS011;38819;42.692;23.342;2024-02-23T10:00:58;5.63;;;4.60;;
52956;SDS011;38819;42.692;23.342;2024-02-23T10:03:25;10.63;;;5.13;;
52956;SDS011;38819;42.692;23.342;2024-02-23T10:05:53;11.30;;;4.82;;
52956;SDS011;38819;42.692;23.342;2024-02-23T10:08:19;13.45;;;5.25;;
52956;SDS011;38819;42.692;23.342;2024-02-23T10:10:45;8.73;;;5.13;;
52956;SDS011;38819;42.692;23.342;2024-02-23T10:13:11;5.95;;;4.50;;
52956;SDS011;38819;42.692;23.342;2024-02-23T10:15:37;9.88;;;5.18;;
52956;SDS011;38819;42.692;23.342;2024-02-23T10:18:03;6.85;;;4.50;;
52956;SDS011;38819;42.692;23.342;2024-02-23T10:20:31;5.82;;;4.32;;
52956;SDS011;38819;42.692;23.342;2024-02-23T10:22:57;10.40;;;4.63;;
52956;SDS011;38819;42.692;23.342;2024-02-23T10:25:22;8.18;;;4.60;;
52956;SDS011;38819;42.692;23.342;2024-02-23T10:27:48;17.08;;;4.55;;
52956;SDS011;38819;42.692;23.342;2024-02-23T10:30:13;4.97;;;3.83;;
52956;SDS011;38819;42.692;23.342;2024-02-23T10:32:42;6.75;;;4.53;;
52956;SDS011;38819;42.692;23.342;2024-02-23T10:35:10;5.75;;;4.20;;
52956;SDS011;38819;42.692;23.342;2024-02-23T10:37:38;6.28;;;4.35;;
52956;SDS011;38819;42.692;23.342;2024-02-23T10:40:03;5.65;;;3.20;;
52956;SDS011;38819;42.692;23.342;2024-02-23T10:42:34;3.88;;;2.78;;
52956;SDS011;38819;42.692;23.342;2024-02-23T10:45:03;4.65;;;2.78;;
52956;SDS011;38819;42.692;23.342;2024-02-23T10:47:30;3.67;;;2.20;;
52956;SDS011;38819;42.692;23.342;2024-02-23T10:49:58;4.03;;;2.45;;
52956;SDS011;38819;42.692;23.342;2024-02-23T10:52:26;4.07;;;2.58;;
52956;SDS011;38819;42.692;23.342;2024-02-23T10:54:52;2.35;;;2.10;;
52956;SDS011;38819;42.692;23.342;2024-02-23T10:57:18;2.63;;;1.88;;
52956;SDS011;38819;42.692;23.342;2024-02-23T10:59:47;4.43;;;2.17;;
52956;SDS011;38819;42.692;23.342;2024-02-23T11:02:13;3.88;;;1.80;;
52956;SDS011;38819;42.692;23.342;2024-02-23T11:04:45;5.22;;;1.98;;
52956;SDS011;38819;42.692;23.342;2024-02-23T11:07:15;4.38;;;2.00;;
52956;SDS011;38819;42.692;23.342;2024-02-23T11:09:43;2.25;;;1.98;;
52956;SDS011;38819;42.692;23.342;2024-02-23T11:12:21;4.30;;;2.03;;
52956;SDS011;38819;42.692;23.342;2024-02-23T11:14:48;2.53;;;2.08;;
52956;SDS011;38819;42.692;23.342;2024-02-23T11:17:19;5.38;;;2.13;;
52956;SDS011;38819;42.692;23.342;2024-02-23T11:19:46;1.80;;;1.70;;
52956;SDS011;38819;42.692;23.342;2024-02-23T11:22:14;2.50;;;2.00;;
52956;SDS011;38819;42.692;23.342;2024-02-23T11:24:43;3.00;;;2.00;;
52956;SDS011;38819;42.692;23.342;2024-02-23T11:27:13;2.80;;;2.05;;
52956;SDS011;38819;42.692;23.342;2024-02-23T11:29:39;3.53;;;2.00;;
52956;SDS011;38819;42.692;23.342;2024-02-23T11:32:12;2.22;;;1.63;;
52956;SDS011;38819;42.692;23.342;2024-02-23T11:34:55;2.25;;;2.05;;
52956;SDS011;38819;42.692;23.342;2024-02-23T11:37:27;3.50;;;2.00;;
52956;SDS011;38819;42.692;23.342;2024-02-23T11:39:54;2.30;;;1.90;;
52956;SDS011;38819;42.692;23.342;2024-02-23T11:42:20;5.88;;;2.03;;
52956;SDS011;38819;42.692;23.342;2024-02-23T11:44:49;3.17;;;2.28;;
52956;SDS011;38819;42.692;23.342;2024-02-23T11:47:15;2.88;;;2.00;;
52956;SDS011;38819;42.692;23.342;2024-02-23T11:49:42;2.47;;;1.92;;
52956;SDS011;38819;42.692;23.342;2024-02-23T11:52:07;2.88;;;1.77;;
52956;SDS011;38819;42.692;23.342;2024-02-23T11:54:32;4.60;;;2.05;;
52956;SDS011;38819;42.692;23.342;2024-02-23T11:56:58;2.83;;;2.00;;
52956;SDS011;38819;42.692;23.342;2024-02-23T11:59:25;2.87;;;2.47;;
52956;SDS011;38819;42.692;23.342;2024-02-23T12:01:51;3.75;;;2.25;;
52956;SDS011;38819;42.692;23.342;2024-02-23T12:04:16;7.82;;;2.78;;
52956;SDS011;38819;42.692;23.342;2024-02-23T12:06:42;3.90;;;1.95;;
52956;SDS011;38819;42.692;23.342;2024-02-23T12:09:07;2.00;;;1.90;;
52956;SDS011;38819;42.692;23.342;2024-02-23T12:11:33;3.17;;;2.10;;
52956;SDS011;38819;42.692;23.342;2024-02-23T12:14:00;3.40;;;2.22;;
52956;SDS011;38819;42.692;23.342;2024-02-23T12:16:27;1.80;;;1.70;;
52956;SDS011;38819;42.692;23.342;2024-02-23T12:18:55;2.88;;;1.90;;
52956;SDS011;38819;42.692;23.342;2024-02-23T12:21:22;2.67;;;1.90;;
52956;SDS011;38819;42.692;23.342;2024-02-23T12:23:49;2.47;;;1.80;;
52956;SDS011;38819;42.692;23.342;2024-02-23T12:26:16;3.45;;;1.83;;
52956;SDS011;38819;42.692;23.342;2024-02-23T12:28:42;1.85;;;1.67;;
52956;SDS011;38819;42.692;23.342;2024-02-23T12:31:08;24.77;;;2.03;;
52956;SDS011;38819;42.692;23.342;2024-02-23T12:33:39;2.92;;;2.05;;
52956;SDS011;38819;42.692;23.342;2024-02-23T12:36:06;2.05;;;1.50;;
52956;SDS011;38819;42.692;23.342;2024-02-23T12:38:32;4.47;;;1.63;;
52956;SDS011;38819;42.692;23.342;2024-02-23T12:40:59;1.88;;;1.77;;
52956;SDS011;38819;42.692;23.342;2024-02-23T12:43:25;2.05;;;1.65;;
52956;SDS011;38819;42.692;23.342;2024-02-23T12:45:53;7.38;;;1.80;;
52956;SDS011;38819;42.692;23.342;2024-02-23T12:48:19;4.53;;;2.30;;
52956;SDS011;38819;42.692;23.342;2024-02-23T12:50:46;2.67;;;2.08;;
52956;SDS011;38819;42.692;23.342;2024-02-23T12:53:31;2.90;;;1.83;;
52956;SDS011;38819;42.692;23.342;2024-02-23T12:55:57;5.28;;;2.15;;
52956;SDS011;38819;42.692;23.342;2024-02-23T12:58:23;2.05;;;1.50;;
52956;SDS011;38819;42.692;23.342;2024-02-23T13:00:48;2.25;;;1.45;;
52956;SDS011;38819;42.692;23.342;2024-02-23T13:03:13;1.83;;;1.50;;
52956;SDS011;38819;42.692;23.342;2024-02-23T13:05:39;1.70;;;1.60;;
52956;SDS011;38819;42.692;23.342;2024-02-23T13:08:04;1.83;;;1.55;;
52956;SDS011;38819;42.692;23.342;2024-02-23T13:10:30;6.38;;;3.47;;
52956;SDS011;38819;42.692;23.342;2024-02-23T13:12:56;3.10;;;1.85;;
52956;SDS011;38819;42.692;23.342;2024-02-23T13:15:21;3.03;;;2.28;;
52956;SDS011;38819;42.692;23.342;2024-02-23T13:17:47;2.72;;;2.05;;
52956;SDS011;38819;42.692;23.342;2024-02-23T13:20:12;1.75;;;1.60;;
52956;SDS011;38819;42.692;23.342;2024-02-23T13:22:38;1.98;;;1.77;;
52956;SDS011;38819;42.692;23.342;2024-02-23T13:25:04;3.17;;;2.00;;
52956;SDS011;38819;42.692;23.342;2024-02-23T13:27:29;4.55;;;1.90;;
52956;SDS011;38819;42.692;23.342;2024-02-23T13:29:55;2.90;;;2.10;;
52956;SDS011;38819;42.692;23.342;2024-02-23T13:32:20;3.33;;;2.58;;
52956;SDS011;38819;42.692;23.342;2024-02-23T13:34:45;10.52;;;2.28;;
52956;SDS011;38819;42.692;23.342;2024-02-23T13:37:11;3.80;;;2.33;;
52956;SDS011;38819;42.692;23.342;2024-02-23T13:39:37;6.45;;;2.45;;
52956;SDS011;38819;42.692;23.342;2024-02-23T13:42:02;1.65;;;1.33;;
52956;SDS011;38819;42.692;23.342;2024-02-23T13:44:30;5.50;;;1.65;;
52956;SDS011;38819;42.692;23.342;2024-02-23T13:46:56;3.75;;;1.58;;
52956;SDS011;38819;42.692;23.342;2024-02-23T13:49:21;1.88;;;1.70;;
52956;SDS011;38819;42.692;23.342;2024-02-23T13:51:47;2.35;;;2.08;;
52956;SDS011;38819;42.692;23.342;2024-02-23T13:54:12;4.85;;;1.80;;
52956;SDS011;38819;42.692;23.342;2024-02-23T13:56:38;2.40;;;1.67;;
52956;SDS011;38819;42.692;23.342;2024-02-23T13:59:03;2.95;;;1.92;;
52956;SDS011;38819;42.692;23.342;2024-02-23T14:01:29;4.70;;;1.85;;
52956;SDS011;38819;42.692;23.342;2024-02-23T14:03:54;3.13;;;1.60;;
52956;SDS011;38819;42.692;23.342;2024-02-23T14:06:19;2.47;;;1.98;;
52956;SDS011;38819;42.692;23.342;2024-02-23T14:08:45;1.90;;;1.52;;
52956;SDS011;38819;42.692;23.342;2024-02-23T14:11:12;2.10;;;1.85;;
52956;SDS011;38819;42.692;23.342;2024-02-23T14:13:37;1.70;;;1.60;;